Time,TemperatureF,DewpointF,PressureIn,WindDirection,WindDirectionDegrees,WindSpeedMPH,WindSpeedGustMPH,Humidity,HourlyPrecipIn,Conditions,Clouds,dailyrainin,SoftwareType,DateUTC
2013-02-19 00:00:00,31.1,10.2,29.94,WSW,248,2.5,4.0,41,0.00,,---,0.00,VWS V14.01,2013-02-19 05:00:00,
2013-02-19 00:05:00,31.1,10.2,29.94,WSW,248,2.2,2.2,41,0.00,,---,0.00,VWS V14.01,2013-02-19 05:05:00,
2013-02-19 00:10:00,31.1,10.2,29.94,WSW,248,6.5,6.5,41,0.00,,---,0.00,VWS V14.01,2013-02-19 05:10:00,
2013-02-19 00:15:00,31.1,10.2,29.94,WSW,248,3.1,3.1,41,0.00,,---,0.00,VWS V14.01,2013-02-19 05:15:00,
2013-02-19 00:20:00,31.1,10.2,29.94,SW,225,2.7,2.7,41,0.00,,---,0.00,VWS V14.01,2013-02-19 05:20:00,
2013-02-19 00:25:00,31.1,10.2,29.94,SW,225,3.4,3.4,41,0.00,,---,0.00,VWS V14.01,2013-02-19 05:25:00,
2013-02-19 00:30:00,31.1,10.2,29.94,SW,225,2.9,2.9,41,0.00,,---,0.00,VWS V14.01,2013-02-19 05:30:00,
2013-02-19 00:35:00,31.1,10.2,29.94,WSW,248,2.7,2.7,41,0.00,,---,0.00,VWS V14.01,2013-02-19 05:35:00,
2013-02-19 00:40:00,30.9,10.0,29.94,SW,225,1.1,2.9,41,0.00,,---,0.00,VWS V14.01,2013-02-19 05:40:00,
2013-02-19 00:45:00,30.9,10.0,29.94,SSW,202,2.0,2.0,41,0.00,,---,0.00,VWS V14.01,2013-02-19 05:45:00,
2013-02-19 00:50:00,30.9,10.0,29.94,SSW,202,2.2,2.2,41,0.00,,---,0.00,VWS V14.01,2013-02-19 05:50:00,
2013-02-19 00:55:00,30.9,10.0,29.94,WSW,248,2.7,2.7,41,0.00,,---,0.00,VWS V14.01,2013-02-19 05:55:00,
2013-02-19 01:00:00,30.7,10.4,29.94,WSW,248,2.2,2.2,42,0.00,,---,0.00,VWS V14.01,2013-02-19 06:00:00,
2013-02-19 01:05:00,30.7,10.4,29.94,SW,225,1.6,1.6,42,0.00,,---,0.00,VWS V14.01,2013-02-19 06:05:00,
2013-02-19 01:10:00,30.7,10.4,29.94,WSW,248,2.7,2.7,42,0.00,,---,0.00,VWS V14.01,2013-02-19 06:10:00,
2013-02-19 01:15:00,31.1,10.7,29.94,SW,225,2.2,2.2,42,0.00,,---,0.00,VWS V14.01,2013-02-19 06:15:00,
2013-02-19 01:20:00,31.3,10.9,29.94,WSW,248,2.0,2.7,42,0.00,,---,0.00,VWS V14.01,2013-02-19 06:20:00,
2013-02-19 01:25:00,31.5,11.0,29.94,SW,225,2.9,2.9,42,0.00,,---,0.00,VWS V14.01,2013-02-19 06:25:00,
2013-02-19 01:30:00,31.6,11.2,29.91,SSW,202,2.0,2.0,42,0.00,,---,0.00,VWS V14.01,2013-02-19 06:30:00,
2013-02-19 01:35:00,31.6,11.2,29.91,SSW,202,2.5,2.5,42,0.00,,---,0.00,VWS V14.01,2013-02-19 06:35:00,
2013-02-19 01:40:00,32.0,11.5,29.91,WSW,248,2.7,2.7,42,0.00,,---,0.00,VWS V14.01,2013-02-19 06:40:00,
2013-02-19 01:45:00,32.0,11.5,29.91,SSW,202,2.0,2.0,42,0.00,,---,0.00,VWS V14.01,2013-02-19 06:45:00,
2013-02-19 01:50:00,32.2,11.7,29.91,SSW,202,2.2,2.5,42,0.00,,---,0.00,VWS V14.01,2013-02-19 06:50:00,
2013-02-19 01:55:00,32.2,12.2,29.91,SW,225,3.1,3.1,43,0.00,,---,0.00,VWS V14.01,2013-02-19 06:55:00,
2013-02-19 02:00:00,32.4,12.4,29.91,SSW,202,1.6,1.6,43,0.00,,---,0.00,VWS V14.01,2013-02-19 07:00:00,
2013-02-19 02:05:00,32.4,12.4,29.91,SSW,202,3.1,3.1,43,0.00,,---,0.00,VWS V14.01,2013-02-19 07:05:00,
2013-02-19 02:10:00,32.5,13.1,29.91,SSW,202,2.5,2.5,44,0.00,,---,0.00,VWS V14.01,2013-02-19 07:10:00,
2013-02-19 02:15:00,32.7,13.2,29.91,SSW,202,2.5,2.5,44,0.00,,---,0.00,VWS V14.01,2013-02-19 07:15:00,
2013-02-19 02:20:00,32.7,13.7,29.91,SSW,202,2.5,2.5,45,0.00,,---,0.00,VWS V14.01,2013-02-19 07:20:00,
2013-02-19 02:25:00,32.7,14.2,29.91,SSW,202,2.9,2.9,46,0.00,,---,0.00,VWS V14.01,2013-02-19 07:25:00,
2013-02-19 02:30:00,32.9,14.4,29.88,SSW,202,3.1,3.1,46,0.00,,---,0.00,VWS V14.01,2013-02-19 07:30:00,
2013-02-19 02:35:00,33.1,15.1,29.88,SSW,202,2.7,2.7,47,0.00,,---,0.00,VWS V14.01,2013-02-19 07:35:00,
2013-02-19 02:40:00,33.1,15.5,29.88,SSW,202,2.0,2.0,48,0.00,,---,0.00,VWS V14.01,2013-02-19 07:40:00,
2013-02-19 02:45:00,33.1,16.0,29.88,SSW,202,2.7,2.7,49,0.00,,---,0.00,VWS V14.01,2013-02-19 07:45:00,
2013-02-19 02:50:00,33.3,16.6,29.88,SSW,202,1.6,1.6,50,0.00,,---,0.00,VWS V14.01,2013-02-19 07:50:00,
2013-02-19 02:55:00,33.3,16.6,29.88,SW,225,3.4,3.4,50,0.00,,---,0.00,VWS V14.01,2013-02-19 07:55:00,
2013-02-19 03:00:00,33.4,17.3,29.88,SW,225,3.1,3.1,51,0.00,,---,0.00,VWS V14.01,2013-02-19 08:00:00,
2013-02-19 03:05:00,33.4,17.3,29.88,SSW,202,2.0,2.0,51,0.00,,---,0.00,VWS V14.01,2013-02-19 08:05:00,
2013-02-19 03:10:00,33.6,17.9,29.88,SSW,202,2.5,2.5,52,0.00,,---,0.00,VWS V14.01,2013-02-19 08:10:00,
2013-02-19 03:15:00,33.6,17.9,29.88,SSW,202,2.0,2.0,52,0.00,,---,0.00,VWS V14.01,2013-02-19 08:15:00,
2013-02-19 03:20:00,33.6,17.9,29.88,SSW,202,1.6,1.6,52,0.00,,---,0.00,VWS V14.01,2013-02-19 08:20:00,
2013-02-19 03:25:00,33.6,18.3,29.88,SSW,202,2.5,2.5,53,0.00,,---,0.00,VWS V14.01,2013-02-19 08:25:00,
2013-02-19 03:30:00,33.6,18.3,29.88,SSW,202,2.5,2.9,53,0.00,,---,0.00,VWS V14.01,2013-02-19 08:30:00,
2013-02-19 03:35:00,33.6,18.8,29.88,SW,225,2.2,2.2,54,0.00,,---,0.00,VWS V14.01,2013-02-19 08:35:00,
2013-02-19 03:40:00,33.8,18.9,29.88,SSW,202,2.5,2.5,54,0.00,,---,0.00,VWS V14.01,2013-02-19 08:40:00,
2013-02-19 03:45:00,33.8,18.9,29.88,SW,225,2.7,3.4,54,0.00,,---,0.00,VWS V14.01,2013-02-19 08:45:00,
2013-02-19 03:50:00,34.0,19.5,29.88,SSW,202,2.7,2.9,55,0.00,,---,0.00,VWS V14.01,2013-02-19 08:50:00,
2013-02-19 03:55:00,34.2,19.7,29.88,SW,225,2.7,2.9,55,0.00,,---,0.00,VWS V14.01,2013-02-19 08:55:00,
2013-02-19 04:00:00,34.2,19.7,29.88,SSW,202,2.2,2.2,55,0.00,,---,0.00,VWS V14.01,2013-02-19 09:00:00,
2013-02-19 04:05:00,34.2,19.7,29.88,SSW,202,3.6,3.6,55,0.00,,---,0.00,VWS V14.01,2013-02-19 09:05:00,
2013-02-19 04:10:00,34.3,20.3,29.88,SW,225,2.9,2.9,56,0.00,,---,0.00,VWS V14.01,2013-02-19 09:10:00,
2013-02-19 04:15:00,34.3,20.3,29.88,WSW,248,3.1,3.1,56,0.00,,---,0.00,VWS V14.01,2013-02-19 09:15:00,
2013-02-19 04:20:00,34.3,20.3,29.88,South,180,2.5,3.1,56,0.00,,---,0.00,VWS V14.01,2013-02-19 09:20:00,
2013-02-19 04:25:00,34.2,20.1,29.88,SSW,202,1.6,2.5,56,0.00,,---,0.00,VWS V14.01,2013-02-19 09:25:00,
2013-02-19 04:30:00,34.2,20.5,29.88,SW,225,2.9,2.9,57,0.00,,---,0.00,VWS V14.01,2013-02-19 09:30:00,
2013-02-19 04:35:00,34.2,20.5,29.88,SSW,202,2.7,2.7,57,0.00,,---,0.00,VWS V14.01,2013-02-19 09:35:00,
2013-02-19 04:40:00,34.2,20.5,29.88,WSW,248,2.0,3.6,57,0.00,,---,0.00,VWS V14.01,2013-02-19 09:40:00,
2013-02-19 04:45:00,34.2,20.5,29.85,West,270,2.9,2.9,57,0.00,,---,0.00,VWS V14.01,2013-02-19 09:45:00,
2013-02-19 04:50:00,34.0,20.4,29.85,WSW,248,2.2,2.2,57,0.00,,---,0.00,VWS V14.01,2013-02-19 09:50:00,
2013-02-19 04:55:00,34.0,20.8,29.85,SSW,202,2.0,2.9,58,0.00,,---,0.00,VWS V14.01,2013-02-19 09:55:00,
2013-02-19 05:00:00,34.0,20.8,29.85,WSW,248,1.1,1.1,58,0.00,,---,0.00,VWS V14.01,2013-02-19 10:00:00,
2013-02-19 05:05:00,34.0,20.8,29.85,SSW,202,2.9,2.9,58,0.00,,---,0.00,VWS V14.01,2013-02-19 10:05:00,
2013-02-19 05:10:00,34.2,20.9,29.85,SW,225,2.5,2.5,58,0.00,,---,0.00,VWS V14.01,2013-02-19 10:10:00,
2013-02-19 05:15:00,34.3,21.1,29.85,SSW,202,2.5,2.5,58,0.00,,---,0.00,VWS V14.01,2013-02-19 10:15:00,
2013-02-19 05:20:00,34.5,21.3,29.85,SSW,202,2.5,2.5,58,0.00,,---,0.00,VWS V14.01,2013-02-19 10:20:00,
2013-02-19 05:25:00,34.7,21.5,29.85,SSW,202,2.0,3.4,58,0.00,,---,0.00,VWS V14.01,2013-02-19 10:25:00,
2013-02-19 05:30:00,34.5,20.9,29.82,SSW,202,2.5,2.5,57,0.00,,---,0.00,VWS V14.01,2013-02-19 10:30:00,
2013-02-19 05:35:00,34.7,21.0,29.82,SSW,202,2.9,2.9,57,0.00,,---,0.00,VWS V14.01,2013-02-19 10:35:00,
2013-02-19 05:40:00,34.9,21.6,29.82,SSW,202,2.0,3.1,58,0.00,,---,0.00,VWS V14.01,2013-02-19 10:40:00,
2013-02-19 05:45:00,34.9,21.2,29.82,SSW,202,2.7,2.7,57,0.00,,---,0.00,VWS V14.01,2013-02-19 10:45:00,
2013-02-19 05:50:00,34.9,21.6,29.82,SW,225,1.6,2.7,58,0.00,,---,0.00,VWS V14.01,2013-02-19 10:50:00,
2013-02-19 05:55:00,34.9,21.6,29.82,SW,225,4.0,4.0,58,0.00,,---,0.00,VWS V14.01,2013-02-19 10:55:00,
2013-02-19 06:00:00,34.9,21.6,29.82,SSW,202,1.3,2.0,58,0.00,,---,0.00,VWS V14.01,2013-02-19 11:00:00,
2013-02-19 06:05:00,34.9,21.6,29.82,SW,225,3.1,3.1,58,0.00,,---,0.00,VWS V14.01,2013-02-19 11:05:00,
2013-02-19 06:10:00,35.1,21.8,29.82,SSW,202,2.9,2.9,58,0.00,,---,0.00,VWS V14.01,2013-02-19 11:10:00,
2013-02-19 06:15:00,34.9,21.6,29.82,SSE,158,2.7,2.7,58,0.00,,---,0.00,VWS V14.01,2013-02-19 11:15:00,
2013-02-19 06:20:00,35.1,21.8,29.82,SSW,202,2.9,2.9,58,0.00,,---,0.00,VWS V14.01,2013-02-19 11:20:00,
2013-02-19 06:25:00,35.2,22.4,29.82,SSW,202,3.8,3.8,59,0.00,,---,0.00,VWS V14.01,2013-02-19 11:25:00,
2013-02-19 06:30:00,35.4,22.5,29.82,SSW,202,2.9,3.1,59,0.00,,---,0.00,VWS V14.01,2013-02-19 11:30:00,
2013-02-19 06:35:00,35.4,22.5,29.82,SW,225,2.0,2.5,59,0.00,,---,0.00,VWS V14.01,2013-02-19 11:35:00,
2013-02-19 06:40:00,35.4,22.5,29.82,SSW,202,2.0,2.0,59,0.00,,---,0.00,VWS V14.01,2013-02-19 11:40:00,
2013-02-19 06:45:00,35.4,22.5,29.79,SSW,202,3.4,3.4,59,0.00,,---,0.00,VWS V14.01,2013-02-19 11:45:00,
2013-02-19 06:50:00,35.4,22.5,29.79,SSW,202,2.5,3.1,59,0.00,,---,0.00,VWS V14.01,2013-02-19 11:50:00,
2013-02-19 06:55:00,35.6,22.7,29.79,WSW,248,3.1,3.1,59,0.00,,---,0.00,VWS V14.01,2013-02-19 11:55:00,
2013-02-19 07:00:00,35.8,22.9,29.79,SW,225,2.9,2.9,59,0.00,,---,0.00,VWS V14.01,2013-02-19 12:00:00,
2013-02-19 07:05:00,36.0,23.0,29.79,SSW,202,3.4,3.4,59,0.00,,---,0.00,VWS V14.01,2013-02-19 12:05:00,
2013-02-19 07:10:00,36.1,23.2,29.79,SSW,202,3.1,3.1,59,0.00,,---,0.00,VWS V14.01,2013-02-19 12:10:00,
2013-02-19 07:15:00,36.1,23.2,29.79,SSW,202,2.7,2.7,59,0.00,,---,0.00,VWS V14.01,2013-02-19 12:15:00,
2013-02-19 07:20:00,36.7,23.7,29.79,SW,225,3.6,3.6,59,0.00,,---,0.00,VWS V14.01,2013-02-19 12:20:00,
2013-02-19 07:25:00,37.0,24.1,29.79,SW,225,2.5,2.5,59,0.00,,---,0.00,VWS V14.01,2013-02-19 12:25:00,
2013-02-19 07:30:00,37.0,24.1,29.79,SSW,202,6.3,6.3,59,0.00,,---,0.00,VWS V14.01,2013-02-19 12:30:00,
2013-02-19 07:35:00,37.8,25.1,29.79,WSW,248,3.6,3.6,60,0.00,,---,0.00,VWS V14.01,2013-02-19 12:35:00,
2013-02-19 07:40:00,38.1,25.1,29.79,WSW,248,3.8,3.8,59,0.00,,---,0.00,VWS V14.01,2013-02-19 12:40:00,
2013-02-19 07:45:00,38.8,25.8,29.79,SW,225,2.5,2.5,59,0.00,,---,0.00,VWS V14.01,2013-02-19 12:45:00,
2013-02-19 07:50:00,39.4,25.4,29.79,WSW,248,3.4,3.4,57,0.00,,---,0.00,VWS V14.01,2013-02-19 12:50:00,
2013-02-19 07:55:00,39.7,25.8,29.79,WSW,248,2.0,2.0,57,0.00,,---,0.00,VWS V14.01,2013-02-19 12:55:00,
2013-02-19 08:00:00,40.1,25.7,29.79,WSW,248,3.1,3.6,56,0.00,,---,0.00,VWS V14.01,2013-02-19 13:00:00,
2013-02-19 08:05:00,40.3,25.9,29.79,WSW,248,6.0,6.0,56,0.00,,---,0.00,VWS V14.01,2013-02-19 13:05:00,
2013-02-19 08:10:00,40.6,25.8,29.79,SSW,202,8.7,8.7,55,0.00,,---,0.00,VWS V14.01,2013-02-19 13:10:00,
2013-02-19 08:15:00,41.0,25.6,29.79,West,270,7.4,7.4,54,0.00,,---,0.00,VWS V14.01,2013-02-19 13:15:00,
2013-02-19 08:20:00,41.5,26.1,29.79,WSW,248,7.8,7.8,54,0.00,,---,0.00,VWS V14.01,2013-02-19 13:20:00,
2013-02-19 08:25:00,42.1,26.2,29.79,SSE,158,3.8,3.8,53,0.00,,---,0.00,VWS V14.01,2013-02-19 13:25:00,
2013-02-19 08:30:00,42.3,26.4,29.79,SW,225,2.9,2.9,53,0.00,,---,0.00,VWS V14.01,2013-02-19 13:30:00,
2013-02-19 08:35:00,42.8,26.4,29.79,SSW,202,4.3,4.3,52,0.00,,---,0.00,VWS V14.01,2013-02-19 13:35:00,
2013-02-19 08:40:00,43.2,26.7,29.79,West,270,2.2,2.2,52,0.00,,---,0.00,VWS V14.01,2013-02-19 13:40:00,
2013-02-19 08:45:00,43.5,26.6,29.79,WSW,248,9.6,9.6,51,0.00,,---,0.00,VWS V14.01,2013-02-19 13:45:00,
2013-02-19 08:50:00,43.7,26.8,29.79,SW,225,6.3,6.3,51,0.00,,---,0.00,VWS V14.01,2013-02-19 13:50:00,
2013-02-19 08:55:00,44.2,26.8,29.79,SSW,202,1.6,1.6,50,0.00,,---,0.00,VWS V14.01,2013-02-19 13:55:00,
2013-02-19 09:00:00,44.6,27.1,29.79,SSW,202,3.4,3.4,50,0.00,,---,0.00,VWS V14.01,2013-02-19 14:00:00,
2013-02-19 09:05:00,45.1,27.1,29.79,WSW,248,3.8,3.8,49,0.00,,---,0.00,VWS V14.01,2013-02-19 14:05:00,
2013-02-19 09:10:00,45.5,27.5,29.79,WSW,248,2.0,5.6,49,0.00,,---,0.00,VWS V14.01,2013-02-19 14:10:00,
2013-02-19 09:15:00,46.0,28.0,29.76,SSW,202,3.8,3.8,49,0.00,,---,0.00,VWS V14.01,2013-02-19 14:15:00,
2013-02-19 09:20:00,46.8,28.1,29.76,WSW,248,3.6,3.6,48,0.00,,---,0.00,VWS V14.01,2013-02-19 14:20:00,
2013-02-19 09:25:00,47.1,28.5,29.76,SSW,202,2.7,2.7,48,0.00,,---,0.00,VWS V14.01,2013-02-19 14:25:00,
2013-02-19 09:30:00,47.3,28.6,29.76,West,270,4.0,4.0,48,0.00,,---,0.00,VWS V14.01,2013-02-19 14:30:00,
2013-02-19 09:35:00,48.2,28.4,29.76,WNW,292,1.6,1.6,46,0.00,,---,0.00,VWS V14.01,2013-02-19 14:35:00,
2013-02-19 09:40:00,48.4,28.6,29.76,WNW,292,3.1,3.1,46,0.00,,---,0.00,VWS V14.01,2013-02-19 14:40:00,
2013-02-19 09:45:00,48.9,29.1,29.76,SW,225,4.9,4.9,46,0.00,,---,0.00,VWS V14.01,2013-02-19 14:45:00,
2013-02-19 09:50:00,48.2,28.4,29.76,West,270,5.4,5.4,46,0.00,,---,0.00,VWS V14.01,2013-02-19 14:50:00,
2013-02-19 09:55:00,48.2,27.9,29.76,WSW,248,3.4,3.4,45,0.00,,---,0.00,VWS V14.01,2013-02-19 14:55:00,
2013-02-19 10:00:00,48.7,28.9,29.76,West,270,4.0,4.0,46,0.00,,---,0.00,VWS V14.01,2013-02-19 15:00:00,
2013-02-19 10:05:00,50.7,30.2,29.76,SSW,202,3.6,3.6,45,0.00,,---,0.00,VWS V14.01,2013-02-19 15:05:00,
2013-02-19 10:10:00,51.6,30.4,29.76,SSW,202,5.8,9.8,44,0.00,,---,0.00,VWS V14.01,2013-02-19 15:10:00,
2013-02-19 10:15:00,52.2,30.9,29.74,NW,315,5.6,12.5,44,0.00,,---,0.00,VWS V14.01,2013-02-19 15:15:00,
2013-02-19 10:20:00,52.0,30.8,29.74,WNW,292,10.1,10.1,44,0.00,,---,0.00,VWS V14.01,2013-02-19 15:20:00,
2013-02-19 10:25:00,52.0,31.3,29.74,SSW,202,6.0,6.0,45,0.00,,---,0.00,VWS V14.01,2013-02-19 15:25:00,
2013-02-19 10:30:00,53.1,32.3,29.74,WNW,292,11.2,11.2,45,0.00,,---,0.00,VWS V14.01,2013-02-19 15:30:00,
2013-02-19 10:35:00,52.3,31.6,29.74,SSW,202,3.6,6.3,45,0.00,,---,0.00,VWS V14.01,2013-02-19 15:35:00,
2013-02-19 10:40:00,53.1,32.3,29.74,WNW,292,17.2,17.2,45,0.00,,---,0.00,VWS V14.01,2013-02-19 15:40:00,
2013-02-19 10:45:00,54.1,33.3,29.74,SW,225,6.5,10.1,45,0.00,,---,0.00,VWS V14.01,2013-02-19 15:45:00,
2013-02-19 10:50:00,53.8,33.0,29.74,SW,225,6.5,6.5,45,0.00,,---,0.00,VWS V14.01,2013-02-19 15:50:00,
2013-02-19 10:54:00,55.2,34.3,29.74,WSW,248,8.1,8.1,45,0.00,,---,0.00,VWS V14.01,2013-02-19 15:54:00,
2013-02-19 10:59:00,55.8,34.2,29.74,WSW,248,6.0,6.0,44,0.00,,---,0.00,VWS V14.01,2013-02-19 15:59:00,
2013-02-19 11:04:00,56.1,33.4,29.74,SSW,202,7.8,9.8,42,0.00,,---,0.00,VWS V14.01,2013-02-19 16:04:00,
2013-02-19 11:09:00,56.5,33.7,29.74,WSW,248,12.5,16.3,42,0.00,,---,0.00,VWS V14.01,2013-02-19 16:09:00,
2013-02-19 11:14:00,56.5,33.7,29.71,SSW,202,4.7,5.4,42,0.00,,---,0.00,VWS V14.01,2013-02-19 16:14:00,
2013-02-19 11:19:00,56.8,34.6,29.71,SSW,202,6.5,6.5,43,0.00,,---,0.00,VWS V14.01,2013-02-19 16:19:00,
2013-02-19 11:24:00,56.7,33.8,29.71,WSW,248,12.5,12.5,42,0.00,,---,0.00,VWS V14.01,2013-02-19 16:24:00,
2013-02-19 11:29:00,55.9,33.2,29.71,South,180,7.2,7.2,42,0.00,,---,0.00,VWS V14.01,2013-02-19 16:29:00,
2013-02-19 11:34:00,55.2,32.5,29.71,WSW,248,7.4,7.4,42,0.00,,---,0.00,VWS V14.01,2013-02-19 16:34:00,
2013-02-19 11:39:00,54.9,32.8,29.71,WSW,248,6.5,6.5,43,0.00,,---,0.00,VWS V14.01,2013-02-19 16:39:00,
2013-02-19 11:44:00,54.9,33.4,29.71,SSW,202,5.4,12.5,44,0.00,,---,0.00,VWS V14.01,2013-02-19 16:44:00,
2013-02-19 11:49:00,54.7,33.2,29.71,WSW,248,5.4,5.4,44,0.00,,---,0.00,VWS V14.01,2013-02-19 16:49:00,
2013-02-19 11:54:00,54.7,33.2,29.71,SSW,202,4.9,4.9,44,0.00,,---,0.00,VWS V14.01,2013-02-19 16:54:00,
2013-02-19 11:59:00,54.7,33.8,29.68,WSW,248,10.3,10.3,45,0.00,,---,0.00,VWS V14.01,2013-02-19 16:59:00,
2013-02-19 12:04:00,54.5,33.6,29.68,WSW,248,3.4,4.0,45,0.00,,---,0.00,VWS V14.01,2013-02-19 17:04:00,
2013-02-19 12:09:00,54.5,33.6,29.68,SSW,202,3.6,13.0,45,0.00,,---,0.00,VWS V14.01,2013-02-19 17:09:00,
2013-02-19 12:14:00,54.0,33.1,29.68,WNW,292,7.6,7.6,45,0.00,,---,0.00,VWS V14.01,2013-02-19 17:14:00,
2013-02-19 12:19:00,54.1,33.3,29.68,SW,225,2.7,5.8,45,0.00,,---,0.00,VWS V14.01,2013-02-19 17:19:00,
2013-02-19 12:24:00,53.8,33.0,29.68,WSW,248,6.3,6.3,45,0.00,,---,0.00,VWS V14.01,2013-02-19 17:24:00,
2013-02-19 12:29:00,53.2,33.0,29.68,WNW,292,5.6,5.6,46,0.00,,---,0.00,VWS V14.01,2013-02-19 17:29:00,
2013-02-19 12:34:00,53.2,33.0,29.68,WSW,248,5.6,5.6,46,0.00,,---,0.00,VWS V14.01,2013-02-19 17:34:00,
2013-02-19 12:39:00,53.1,33.4,29.68,WNW,292,6.0,6.0,47,0.00,,---,0.00,VWS V14.01,2013-02-19 17:39:00,
2013-02-19 12:44:00,52.7,33.0,29.68,SW,225,3.8,3.8,47,0.00,,---,0.00,VWS V14.01,2013-02-19 17:44:00,
2013-02-19 12:49:00,52.3,33.2,29.68,WSW,248,2.9,3.8,48,0.00,,---,0.00,VWS V14.01,2013-02-19 17:49:00,
2013-02-19 12:54:00,51.4,34.4,29.68,SSW,202,2.7,2.7,52,0.00,,---,0.00,VWS V14.01,2013-02-19 17:54:00,
2013-02-19 12:59:00,51.1,34.1,29.65,West,270,9.8,9.8,52,0.00,,---,0.00,VWS V14.01,2013-02-19 17:59:00,
2013-02-19 13:04:00,50.4,34.4,29.65,WSW,248,2.9,4.9,54,0.00,,---,0.00,VWS V14.01,2013-02-19 18:04:00,
2013-02-19 13:09:00,50.0,34.9,29.65,WSW,248,4.3,4.3,56,0.00,,---,0.00,VWS V14.01,2013-02-19 18:09:00,
2013-02-19 13:14:00,49.5,34.9,29.65,SSW,202,3.4,3.4,57,0.00,,---,0.00,VWS V14.01,2013-02-19 18:14:00,
2013-02-19 13:19:00,49.3,36.0,29.65,WSW,248,2.9,2.9,60,0.00,,---,0.00,VWS V14.01,2013-02-19 18:19:00,
2013-02-19 13:24:00,49.1,35.4,29.65,WSW,248,4.0,4.0,59,0.00,,---,0.00,VWS V14.01,2013-02-19 18:24:00,
2013-02-19 13:29:00,49.1,35.8,29.62,SSW,202,4.0,4.0,60,0.00,,---,0.00,VWS V14.01,2013-02-19 18:29:00,
2013-02-19 13:34:00,49.1,35.8,29.62,SSW,202,2.5,3.8,60,0.00,,---,0.00,VWS V14.01,2013-02-19 18:34:00,
2013-02-19 13:39:00,49.1,36.2,29.62,SSW,202,2.0,2.7,61,0.00,,---,0.00,VWS V14.01,2013-02-19 18:39:00,
2013-02-19 13:44:00,49.1,36.7,29.62,SSW,202,2.9,2.9,62,0.00,,---,0.00,VWS V14.01,2013-02-19 18:44:00,
2013-02-19 13:49:00,49.1,36.7,29.62,SSW,202,2.5,4.7,62,0.00,,---,0.00,VWS V14.01,2013-02-19 18:49:00,
2013-02-19 13:54:00,49.1,37.5,29.62,WSW,248,3.4,6.0,64,0.00,,---,0.00,VWS V14.01,2013-02-19 18:54:00,
2013-02-19 13:59:00,48.9,37.3,29.59,SW,225,2.7,3.1,64,0.00,,---,0.00,VWS V14.01,2013-02-19 18:59:00,
2013-02-19 14:04:00,49.1,37.9,29.59,WSW,248,3.6,3.6,65,0.00,,---,0.00,VWS V14.01,2013-02-19 19:04:00,
2013-02-19 14:09:00,48.7,37.5,29.59,WSW,248,3.8,3.8,65,0.00,,---,0.00,VWS V14.01,2013-02-19 19:09:00,
2013-02-19 14:14:00,48.4,37.6,29.59,West,270,2.5,2.7,66,0.00,,---,0.00,VWS V14.01,2013-02-19 19:14:00,
2013-02-19 14:19:00,48.2,37.4,29.59,SW,225,4.0,4.0,66,0.00,,---,0.00,VWS V14.01,2013-02-19 19:19:00,
2013-02-19 14:24:00,48.0,37.6,29.59,SSW,202,3.4,3.4,67,0.00,,---,0.00,VWS V14.01,2013-02-19 19:24:00,
2013-02-19 14:29:00,47.8,37.8,29.59,WNW,292,4.0,4.0,68,0.00,,---,0.00,VWS V14.01,2013-02-19 19:29:00,
2013-02-19 14:34:00,47.7,38.0,29.59,SW,225,2.0,2.5,69,0.00,,---,0.00,VWS V14.01,2013-02-19 19:34:00,
2013-02-19 14:39:00,47.7,38.4,29.59,WSW,248,2.2,2.7,70,0.04,,---,0.04,VWS V14.01,2013-02-19 19:39:00,
2013-02-19 14:44:00,47.7,38.4,29.56,West,270,2.2,5.8,70,0.04,,---,0.04,VWS V14.01,2013-02-19 19:44:00,
2013-02-19 14:49:00,47.7,39.1,29.56,WSW,248,1.3,1.3,72,0.04,,---,0.04,VWS V14.01,2013-02-19 19:49:00,
2013-02-19 14:54:00,47.7,38.7,29.56,SSW,202,2.5,2.5,71,0.04,,---,0.04,VWS V14.01,2013-02-19 19:54:00,
2013-02-19 14:59:00,47.7,39.1,29.56,SSW,202,2.5,2.5,72,0.04,,---,0.04,VWS V14.01,2013-02-19 19:59:00,
2013-02-19 15:04:00,47.8,39.3,29.56,ESE,112,3.4,3.4,72,0.04,,---,0.04,VWS V14.01,2013-02-19 20:04:00,
2013-02-19 15:09:00,47.8,39.6,29.56,West,270,3.4,3.4,73,0.04,,---,0.04,VWS V14.01,2013-02-19 20:09:00,
2013-02-19 15:14:00,47.7,39.4,29.56,SSW,202,3.1,3.1,73,0.04,,---,0.04,VWS V14.01,2013-02-19 20:14:00,
2013-02-19 15:19:00,47.8,39.6,29.56,SSE,158,4.3,4.3,73,0.04,,---,0.04,VWS V14.01,2013-02-19 20:19:00,
2013-02-19 15:24:00,47.8,39.6,29.56,SW,225,4.3,4.3,73,0.04,,---,0.04,VWS V14.01,2013-02-19 20:24:00,
2013-02-19 15:29:00,47.8,39.6,29.53,SSW,202,4.9,4.9,73,0.04,,---,0.04,VWS V14.01,2013-02-19 20:29:00,
2013-02-19 15:34:00,47.7,39.8,29.53,SSW,202,4.3,4.3,74,0.04,,---,0.04,VWS V14.01,2013-02-19 20:34:00,
2013-02-19 15:39:00,47.8,40.0,29.53,SSW,202,3.8,3.8,74,0.00,,---,0.04,VWS V14.01,2013-02-19 20:39:00,
2013-02-19 15:44:00,47.8,40.0,29.53,SSW,202,2.7,2.7,74,0.00,,---,0.04,VWS V14.01,2013-02-19 20:44:00,
2013-02-19 15:49:00,47.8,40.0,29.53,West,270,3.1,3.1,74,0.00,,---,0.04,VWS V14.01,2013-02-19 20:49:00,
2013-02-19 15:54:00,47.8,40.3,29.53,SSW,202,2.9,4.0,75,0.00,,---,0.04,VWS V14.01,2013-02-19 20:54:00,
2013-02-19 15:59:00,47.8,40.3,29.53,WSW,248,3.6,5.4,75,0.00,,---,0.04,VWS V14.01,2013-02-19 20:59:00,
2013-02-19 16:04:00,48.0,40.5,29.53,SW,225,4.3,4.9,75,0.00,,---,0.04,VWS V14.01,2013-02-19 21:04:00,
2013-02-19 16:09:00,47.8,40.7,29.53,SE,135,4.0,4.0,76,0.00,,---,0.04,VWS V14.01,2013-02-19 21:09:00,
2013-02-19 16:14:00,47.8,40.7,29.50,SW,225,4.7,4.7,76,0.00,,---,0.04,VWS V14.01,2013-02-19 21:14:00,
2013-02-19 16:19:00,47.8,40.7,29.50,SSW,202,2.7,2.9,76,0.04,,---,0.08,VWS V14.01,2013-02-19 21:19:00,
2013-02-19 16:24:00,47.8,40.7,29.50,SSW,202,6.9,6.9,76,0.04,,---,0.08,VWS V14.01,2013-02-19 21:24:00,
2013-02-19 16:29:00,47.7,40.8,29.50,WSW,248,4.3,4.3,77,0.04,,---,0.08,VWS V14.01,2013-02-19 21:29:00,
2013-02-19 16:34:00,47.7,40.8,29.50,SSW,202,2.5,2.7,77,0.04,,---,0.08,VWS V14.01,2013-02-19 21:34:00,
2013-02-19 16:39:00,47.7,40.8,29.50,SW,225,7.8,7.8,77,0.04,,---,0.08,VWS V14.01,2013-02-19 21:39:00,
2013-02-19 16:44:00,47.5,41.6,29.47,SW,225,3.6,3.6,80,0.04,,---,0.08,VWS V14.01,2013-02-19 21:44:00,
2013-02-19 16:49:00,47.5,41.0,29.47,WSW,248,11.0,11.0,78,0.04,,---,0.08,VWS V14.01,2013-02-19 21:49:00,
2013-02-19 16:54:00,47.5,41.3,29.47,SSW,202,3.6,4.0,79,0.04,,---,0.08,VWS V14.01,2013-02-19 21:54:00,
2013-02-19 16:59:00,47.5,41.3,29.47,SW,225,4.3,4.3,79,0.04,,---,0.08,VWS V14.01,2013-02-19 21:59:00,
2013-02-19 17:04:00,47.7,42.1,29.47,WSW,248,9.2,9.2,81,0.04,,---,0.08,VWS V14.01,2013-02-19 22:04:00,
2013-02-19 17:09:00,47.7,42.1,29.47,WSW,248,5.6,5.6,81,0.04,,---,0.08,VWS V14.01,2013-02-19 22:09:00,
2013-02-19 17:14:00,47.7,42.4,29.47,WSW,248,4.3,4.9,82,0.04,,---,0.08,VWS V14.01,2013-02-19 22:14:00,
2013-02-19 17:19:00,47.8,43.2,29.47,WSW,248,4.3,4.3,84,0.04,,---,0.08,VWS V14.01,2013-02-19 22:19:00,
2013-02-19 17:24:00,47.8,43.2,29.47,WSW,248,3.8,4.9,84,0.00,,---,0.08,VWS V14.01,2013-02-19 22:24:00,
2013-02-19 17:29:00,48.0,43.4,29.44,SSW,202,7.8,7.8,84,0.00,,---,0.08,VWS V14.01,2013-02-19 22:29:00,
2013-02-19 17:34:00,48.0,43.1,29.44,WSW,248,6.0,6.0,83,0.00,,---,0.08,VWS V14.01,2013-02-19 22:34:00,
2013-02-19 17:39:00,48.0,43.7,29.44,WSW,248,8.7,8.7,85,0.04,,---,0.12,VWS V14.01,2013-02-19 22:39:00,
2013-02-19 17:44:00,48.2,43.6,29.44,WSW,248,3.6,5.4,84,0.04,,---,0.12,VWS V14.01,2013-02-19 22:44:00,
2013-02-19 17:49:00,48.2,43.6,29.44,West,270,5.6,5.6,84,0.04,,---,0.12,VWS V14.01,2013-02-19 22:49:00,
2013-02-19 17:54:00,48.4,43.8,29.44,South,180,4.0,6.5,84,0.04,,---,0.12,VWS V14.01,2013-02-19 22:54:00,
2013-02-19 17:59:00,48.4,43.8,29.44,WSW,248,7.2,7.2,84,0.04,,---,0.12,VWS V14.01,2013-02-19 22:59:00,
2013-02-19 18:04:00,48.4,43.8,29.44,WNW,292,2.9,4.9,84,0.04,,---,0.12,VWS V14.01,2013-02-19 23:04:00,
2013-02-19 18:09:00,48.4,43.8,29.44,WSW,248,6.5,9.8,84,0.04,,---,0.12,VWS V14.01,2013-02-19 23:09:00,
2013-02-19 18:14:00,48.4,43.5,29.44,WSW,248,3.6,3.6,83,0.09,,---,0.17,VWS V14.01,2013-02-19 23:14:00,
2013-02-19 18:19:00,48.4,43.8,29.44,WNW,292,4.9,4.9,84,0.09,,---,0.17,VWS V14.01,2013-02-19 23:19:00,
2013-02-19 18:24:00,48.4,43.8,29.44,WSW,248,2.9,2.9,84,0.09,,---,0.17,VWS V14.01,2013-02-19 23:24:00,
2013-02-19 18:29:00,48.4,43.8,29.44,WSW,248,3.1,3.6,84,0.09,,---,0.17,VWS V14.01,2013-02-19 23:29:00,
2013-02-19 18:34:00,48.4,43.8,29.44,SW,225,4.9,4.9,84,0.09,,---,0.17,VWS V14.01,2013-02-19 23:34:00,
2013-02-19 18:39:00,48.4,43.8,29.44,West,270,2.9,4.5,84,0.05,,---,0.17,VWS V14.01,2013-02-19 23:39:00,
2013-02-19 18:44:00,48.4,43.8,29.44,West,270,1.6,1.6,84,0.08,,---,0.20,VWS V14.01,2013-02-19 23:44:00,
2013-02-19 18:49:00,48.4,44.1,29.44,NNW,338,3.1,3.1,85,0.08,,---,0.20,VWS V14.01,2013-02-19 23:49:00,
2013-02-19 18:54:00,48.4,44.1,29.44,WSW,248,3.4,3.4,85,0.08,,---,0.20,VWS V14.01,2013-02-19 23:54:00,
2013-02-19 18:59:00,48.4,44.1,29.44,WSW,248,3.1,3.1,85,0.08,,---,0.20,VWS V14.01,2013-02-19 23:59:00,
2013-02-19 19:04:00,48.4,44.1,29.44,West,270,4.7,4.7,85,0.08,,---,0.20,VWS V14.01,2013-02-20 00:04:00,
2013-02-19 19:09:00,48.4,44.1,29.44,WNW,292,2.9,3.4,85,0.08,,---,0.20,VWS V14.01,2013-02-20 00:09:00,
2013-02-19 19:14:00,48.4,44.1,29.44,West,270,4.9,4.9,85,0.03,,---,0.20,VWS V14.01,2013-02-20 00:14:00,
2013-02-19 19:19:00,48.4,44.1,29.44,WNW,292,4.0,4.0,85,0.03,,---,0.20,VWS V14.01,2013-02-20 00:19:00,
2013-02-19 19:24:00,48.4,44.1,29.44,NNW,338,4.3,4.3,85,0.03,,---,0.20,VWS V14.01,2013-02-20 00:24:00,
2013-02-19 19:29:00,48.4,44.1,29.44,WSW,248,3.4,3.4,85,0.03,,---,0.20,VWS V14.01,2013-02-20 00:29:00,
2013-02-19 19:34:00,48.4,44.1,29.44,NNW,338,7.6,7.6,85,0.03,,---,0.20,VWS V14.01,2013-02-20 00:34:00,
2013-02-19 19:39:00,48.6,44.3,29.44,WNW,292,6.5,9.2,85,0.03,,---,0.20,VWS V14.01,2013-02-20 00:39:00,
2013-02-19 19:44:00,48.6,44.3,29.44,WNW,292,4.3,7.8,85,0.00,,---,0.20,VWS V14.01,2013-02-20 00:44:00,
2013-02-19 19:49:00,48.6,44.3,29.44,WSW,248,7.4,7.4,85,0.00,,---,0.20,VWS V14.01,2013-02-20 00:49:00,
2013-02-19 19:54:00,48.6,44.3,29.44,NW,315,8.7,8.7,85,0.00,,---,0.20,VWS V14.01,2013-02-20 00:54:00,
2013-02-19 19:59:00,48.6,44.3,29.44,WNW,292,6.0,6.0,85,0.00,,---,0.20,VWS V14.01,2013-02-20 00:59:00,
2013-02-19 20:04:00,48.6,44.3,29.44,WNW,292,6.3,9.6,85,0.00,,---,0.20,VWS V14.01,2013-02-20 01:04:00,
2013-02-19 20:09:00,48.4,44.1,29.44,WNW,292,6.5,6.5,85,0.00,,---,0.20,VWS V14.01,2013-02-20 01:09:00,
2013-02-19 20:14:00,48.4,44.1,29.44,NW,315,6.0,7.6,85,0.00,,---,0.20,VWS V14.01,2013-02-20 01:14:00,
2013-02-19 20:19:00,48.4,43.8,29.44,NNW,338,4.9,4.9,84,0.00,,---,0.20,VWS V14.01,2013-02-20 01:19:00,
2013-02-19 20:24:00,48.2,43.6,29.44,NNW,338,9.8,9.8,84,0.00,,---,0.20,VWS V14.01,2013-02-20 01:24:00,
2013-02-19 20:29:00,48.0,43.4,29.44,WNW,292,7.8,17.2,84,0.00,,---,0.20,VWS V14.01,2013-02-20 01:29:00,
2013-02-19 20:34:00,47.5,42.6,29.44,NW,315,5.8,5.8,83,0.00,,---,0.20,VWS V14.01,2013-02-20 01:34:00,
2013-02-19 20:39:00,47.3,42.1,29.44,NW,315,8.1,8.1,82,0.00,,---,0.20,VWS V14.01,2013-02-20 01:39:00,
2013-02-19 20:44:00,47.1,41.6,29.44,WNW,292,13.2,13.2,81,0.00,,---,0.20,VWS V14.01,2013-02-20 01:44:00,
2013-02-19 20:49:00,46.9,41.1,29.44,WNW,292,6.0,6.0,80,0.00,,---,0.20,VWS V14.01,2013-02-20 01:49:00,
2013-02-19 20:54:00,46.8,40.9,29.44,NW,315,8.1,8.1,80,0.00,,---,0.20,VWS V14.01,2013-02-20 01:54:00,
2013-02-19 20:59:00,46.6,40.8,29.44,NW,315,10.7,10.7,80,0.00,,---,0.20,VWS V14.01,2013-02-20 01:59:00,
2013-02-19 21:04:00,46.2,40.7,29.44,NW,315,10.5,10.5,81,0.00,,---,0.20,VWS V14.01,2013-02-20 02:04:00,
2013-02-19 21:09:00,46.0,40.5,29.44,WNW,292,6.5,6.5,81,0.00,,---,0.20,VWS V14.01,2013-02-20 02:09:00,
2013-02-19 21:14:00,46.0,40.5,29.44,WNW,292,10.1,10.1,81,0.00,,---,0.20,VWS V14.01,2013-02-20 02:14:00,
2013-02-19 21:19:00,45.7,40.2,29.44,WNW,292,6.0,6.0,81,0.00,,---,0.20,VWS V14.01,2013-02-20 02:19:00,
2013-02-19 21:24:00,45.5,40.0,29.44,WNW,292,13.9,13.9,81,0.00,,---,0.20,VWS V14.01,2013-02-20 02:24:00,
2013-02-19 21:29:00,45.1,39.3,29.44,West,270,12.1,12.1,80,0.00,,---,0.20,VWS V14.01,2013-02-20 02:29:00,
2013-02-19 21:34:00,44.8,39.0,29.44,NNW,338,11.9,11.9,80,0.00,,---,0.20,VWS V14.01,2013-02-20 02:34:00,
2013-02-19 21:39:00,44.6,38.5,29.44,WNW,292,6.5,6.5,79,0.00,,---,0.20,VWS V14.01,2013-02-20 02:39:00,
2013-02-19 21:44:00,44.4,39.0,29.47,WSW,248,5.8,10.1,81,0.00,,---,0.20,VWS V14.01,2013-02-20 02:44:00,
2013-02-19 21:49:00,44.2,38.2,29.47,WNW,292,8.7,8.7,79,0.00,,---,0.20,VWS V14.01,2013-02-20 02:49:00,
2013-02-19 21:54:00,44.1,37.7,29.47,NW,315,5.8,5.8,78,0.00,,---,0.20,VWS V14.01,2013-02-20 02:54:00,
2013-02-19 21:59:00,43.7,37.0,29.47,NW,315,2.7,2.7,77,0.00,,---,0.20,VWS V14.01,2013-02-20 02:59:00,
2013-02-19 22:04:00,43.5,36.8,29.47,NNW,338,5.6,5.6,77,0.00,,---,0.20,VWS V14.01,2013-02-20 03:04:00,
2013-02-19 22:09:00,43.3,36.3,29.47,NNW,338,2.9,2.9,76,0.00,,---,0.20,VWS V14.01,2013-02-20 03:09:00,
2013-02-19 22:14:00,43.2,36.1,29.47,NNW,338,6.5,6.5,76,0.00,,---,0.20,VWS V14.01,2013-02-20 03:14:00,
2013-02-19 22:19:00,43.0,36.0,29.47,WSW,248,3.6,3.6,76,0.00,,---,0.20,VWS V14.01,2013-02-20 03:19:00,
2013-02-19 22:24:00,43.0,36.0,29.47,NNW,338,9.6,9.6,76,0.00,,---,0.20,VWS V14.01,2013-02-20 03:24:00,
2013-02-19 22:29:00,43.0,36.0,29.47,NNW,338,5.4,5.4,76,0.00,,---,0.20,VWS V14.01,2013-02-20 03:29:00,
2013-02-19 22:34:00,42.8,35.1,29.47,NW,315,9.2,9.2,74,0.00,,---,0.20,VWS V14.01,2013-02-20 03:34:00,
2013-02-19 22:39:00,42.8,35.1,29.47,NNW,338,10.5,10.5,74,0.00,,---,0.20,VWS V14.01,2013-02-20 03:39:00,
2013-02-19 22:44:00,42.6,34.9,29.47,NNW,338,6.5,6.5,74,0.00,,---,0.20,VWS V14.01,2013-02-20 03:44:00,
2013-02-19 22:49:00,42.4,34.8,29.47,NW,315,6.3,6.3,74,0.00,,---,0.20,VWS V14.01,2013-02-20 03:49:00,
2013-02-19 22:54:00,42.3,34.2,29.47,NNW,338,4.3,4.3,73,0.00,,---,0.20,VWS V14.01,2013-02-20 03:54:00,
2013-02-19 22:59:00,42.3,34.2,29.50,NNW,338,3.1,3.1,73,0.00,,---,0.20,VWS V14.01,2013-02-20 03:59:00,
2013-02-19 23:04:00,42.3,33.9,29.50,NNW,338,15.4,15.4,72,0.00,,---,0.20,VWS V14.01,2013-02-20 04:04:00,
2013-02-19 23:09:00,42.1,33.0,29.50,NNW,338,2.7,2.7,70,0.00,,---,0.20,VWS V14.01,2013-02-20 04:09:00,
2013-02-19 23:14:00,41.9,32.8,29.50,NNW,338,7.4,7.4,70,0.00,,---,0.20,VWS V14.01,2013-02-20 04:14:00,
2013-02-19 23:19:00,41.7,32.7,29.50,NW,315,5.4,5.4,70,0.00,,---,0.20,VWS V14.01,2013-02-20 04:19:00,
2013-02-19 23:24:00,41.5,31.8,29.50,NW,315,7.4,7.4,68,0.00,,---,0.20,VWS V14.01,2013-02-20 04:24:00,
2013-02-19 23:29:00,41.0,30.5,29.50,NNW,338,3.8,3.8,66,0.00,,---,0.20,VWS V14.01,2013-02-20 04:29:00,
2013-02-19 23:34:00,40.8,30.4,29.50,NNW,338,6.0,6.0,66,0.00,,---,0.20,VWS V14.01,2013-02-20 04:34:00,
2013-02-19 23:39:00,40.5,30.0,29.50,NW,315,7.4,7.4,66,0.00,,---,0.20,VWS V14.01,2013-02-20 04:39:00,
2013-02-19 23:44:00,40.3,30.2,29.50,NNW,338,6.3,6.3,67,0.00,,---,0.20,VWS V14.01,2013-02-20 04:44:00,
2013-02-19 23:49:00,40.1,29.7,29.50,NW,315,4.3,4.3,66,0.00,,---,0.20,VWS V14.01,2013-02-20 04:49:00,
2013-02-19 23:54:00,39.9,29.5,29.50,WNW,292,3.6,4.0,66,0.00,,---,0.20,VWS V14.01,2013-02-20 04:54:00,
2013-02-19 23:59:00,39.7,29.0,29.50,NNW,338,3.1,3.1,65,0.00,,---,0.20,VWS V14.01,2013-02-20 04:59:00,